Tiempo atmosférico en la estación meteorológica de Jimena de la Frontera, Cádiz (50 m.)



Fecha
DESCASC
Temp. máxima en grados centígrados (hora)
DESCASC
Temp. mínima en grados centígrados (hora)
DESCASC
Temp. media en grados centígrados
DESCASC
Racha de viento máxima en m/sg (hora)
DESCASC
Velocidad máxima media en intervalos de 10 minutos(hora)
DESCASC
Precipitaciones diarias en mm
DESCASC
Precipitaciones de 00:00 a 06:00 en mm
DESCASC
Precipitaciones de 06:00 a 12:00 en mm
DESCASC
Precipitaciones de 12:00 a 18:00 en mm
DESCASC
Precipitaciones de 18:00 a 24:00 en mm
DESCASC
23-06-2019 28.2 (18:00) 14.7 (05:30) 21.5 8.61 (14:40) 4.72 (15:30) 0 0 0 0 0
22-06-2019 26.7 (18:00) 12.2 (07:10) 19.5 12.5 (12:20) 7.22 (12:50) 0 0 0 0 0
21-06-2019 30.7 (15:40) 14.4 (07:20) 22.6 12.78 (17:30) 7.22 (17:30) 0 0 0 0 0
20-06-2019 28.3 (14:40) 16 (00:00) 22.1 11.11 (17:50) 7.22 (17:50) 0 0 0 0 0
19-06-2019 30.8 (17:10) 16.5 (00:00) 23.6 11.67 (17:40) 6.67 (16:00) 0 0 0 0 0
18-06-2019 30.1 (17:00) 9.7 (00:00) 19.9 10.28 (19:00) 6.11 (15:30) 0 0 0 0 0
17-06-2019 28.1 (15:30) 8.4 (00:00) 18.3 8.33 (15:40) 4.17 (15:10) 0 0 0 0 0
16-06-2019 27.5 (15:40) 11.3 (00:00) 19.4 11.67 (16:10) 6.39 (16:00) 0 0 0 0 0
15-06-2019 31.7 (17:20) 9.6 (00:00) 20.7 9.72 (16:20) 5.83 (16:40) 0 0 0 0 0
14-06-2019 24.3 (15:50) 16.5 (00:00) 20.4 11.39 (17:00) 7.5 (17:00) 0 0 0 0 0
13-06-2019 25.5 (16:50) 12.7 (00:00) 19.1 12.22 (13:50) 6.67 (10:40) 0 0 0 0 0
12-06-2019 24.5 (14:10) 13.1 (00:00) 18.8 15.83 (12:20) 8.89 (13:20) 0 0 0 0 0
11-06-2019 26.7 (16:50) 11.6 (00:00) 19.2 12.78 (18:00) 7.5 (13:40) 0 0 0 0 0
10-06-2019 28.4 (15:40) 13.5 (00:00) 20.9 13.06 (18:00) 7.78 (18:50) 0 0 0 0 0
09-06-2019 27.6 (17:10) 16.3 (00:00) 21.9 11.94 (16:40) 6.67 (19:00) 0 0 0 0 0
08-06-2019 27.4 (12:00) 9.8 (00:00) 18.6 14.72 (14:30) 8.06 (14:20) 0 0 0 0 0
07-06-2019 29.1 (17:50) 13 (00:00) 21.1 9.17 (18:30) 5.28 (10:30) 0 0 0 0 0
06-06-2019 28.6 (16:10) 8.8 (00:00) 18.7 11.67 (19:00) 6.39 (17:10) 0 0 0 0 0
05-06-2019 25.9 (17:20) 16.2 (00:00) 21.1 12.22 (13:20) 6.67 (13:00) 0 0 0 0 0
04-06-2019 30.9 (15:50) 8.3 (00:00) 19.6 11.67 (17:30) 6.94 (16:40) 0 0 0 0 0
03-06-2019 28.4 (15:10) 7.7 (00:00) 18 8.33 (16:40) 4.17 (13:10) 0 0 0 0 0
02-06-2019 25.9 (15:50) 10 (00:00) 17.9 13.89 (15:20) 7.5 (15:10) 0 0 0 0 0
01-06-2019 25 (15:30) 18.1 (00:00) 21.6 18.89 (21:00) 7.78 (16:30) 0 0 0 0 0
31-05-2019 24.4 (13:50) 18.4 (00:00) 21.4 20.56 (14:50) 11.39 (15:00) 0 0 0 0 0
30-05-2019 23.3 (13:20) 19 (00:00) 21.1 18.33 (12:30) 10.56 (14:10) 0 0 0 0 0
29-05-2019 25.6 (13:40) 13.4 (00:00) 19.5 14.72 (11:30) 8.89 (11:40) 0 0 0 0 0
28-05-2019 34.7 (12:50) 12.6 (00:00) 23.7 9.17 (14:30) 5.56 (14:30) 0 0 0 0 0
27-05-2019 32.2 (16:10) 9.8 (00:00) 21 8.89 (17:10) 5.28 (17:10) 0 0 0 0 0
26-05-2019 27 (15:50) 10.9 (00:00) 18.9 9.17 (13:00) 4.72 (12:40) 0 0 0 0 0

Gráficas

Temp. máximas Temp. mínimas Temp. medias Precipitaciones Rachas de viento máximas Velocidades máximas media en intervalos de 10 minutos

Datos horarios

Fecha y hora oficial Temperatura (ºC) Velocidad del viento (km/h) Dirección del viento Racha (km/h) Dirección de racha Precipitación (mm) Presión (hPa) Tendencia (hPa) Humedad (%)
2019-06-24 23:00:00 -- -- -- -- -- -- -- -- --
2019-06-24 22:00:00 25 12 Oeste 25 Oeste 0 -- -- 64
2019-06-24 21:00:00 27.3 13 Oeste 25 Oeste 0 -- -- 58
2019-06-24 20:00:00 29 12 Oeste 20 Sudeste 0 -- -- 53
2019-06-24 19:00:00 29.5 13 Sudeste 24 Este 0 -- -- 47
2019-06-24 18:00:00 29.7 16 Sudeste 28 Sudeste 0 -- -- 46
2019-06-24 17:00:00 30.3 17 Sudeste 30 Sudeste 0 -- -- 46
2019-06-24 16:00:00 30.5 17 Sudeste 29 Sudeste 0 -- -- 46
2019-06-24 15:00:00 31.6 11 Sur 22 Sudeste 0 -- -- 44
2019-06-24 14:00:00 31.4 5 Sudoeste 15 Sudoeste 0 -- -- 42
2019-06-24 13:00:00 28.8 8 Este 15 Sudeste 0 -- -- 44
2019-06-24 12:00:00 28.1 6 Sudoeste 13 Oeste 0 -- -- 52
2019-06-24 11:00:00 26.8 6 Oeste 13 Sudoeste 0 -- -- 56
2019-06-24 10:00:00 24.7 2 Noroeste 4 Oeste 0 -- -- 63
2019-06-24 09:00:00 21.2 0 Calma 3 Noroeste 0 -- -- 71
2019-06-24 08:00:00 15.5 4 Este 5 Este 0 -- -- 92
2019-06-24 07:00:00 14.1 3 Nordeste 8 Nordeste 0 -- -- 95
2019-06-24 06:00:00 14.1 5 Este 6 Este 0 -- -- 94
2019-06-24 05:00:00 14.6 2 Noroeste 5 Nordeste 0 -- -- 93
2019-06-24 04:00:00 15 4 Este 5 Este 0 -- -- 92
2019-06-24 03:00:00 15.7 0 Calma 8 Nordeste 0 -- -- 91
2019-06-24 02:00:00 16.3 3 Nordeste 5 Nordeste 0 -- -- 88
2019-06-24 01:00:00 17.2 3 Nordeste 6 Nordeste 0 -- -- 86
2019-06-24 00:00:00 18 3 Nordeste 6 Nordeste 0 -- -- 84
2019-06-23 23:00:00 20.1 0 Calma 12 Sudeste 0 -- -- 78
2019-06-23 22:00:00 21.4 6 Sudeste 11 Sudeste 0 -- -- 74
2019-06-23 21:00:00 23.6 5 Sudeste 21 Sudeste 0 -- -- 66
2019-06-23 20:00:00 25.7 11 Sudeste 21 Sudeste 0 -- -- 60
2019-06-23 19:00:00 26.2 10 Sudeste 22 Sudeste 0 -- -- 60
2019-06-23 18:00:00 28.2 9 Sudeste 25 Este 0 -- -- 55
2019-06-23 17:00:00 27.6 12 Sudeste 28 Sudeste 0 -- -- 56
2019-06-23 16:00:00 27.1 16 Sudeste 30 Este 0 -- -- 57
2019-06-23 15:00:00 27.5 13 Sudeste 31 Sudeste 0 -- -- 57
2019-06-23 14:00:00 26.8 13 Sudeste 23 Sudeste 0 -- -- 59
2019-06-23 13:00:00 25.9 10 Sudeste 22 Sudeste 0 -- -- 62
2019-06-23 12:00:00 24.1 4 Este 9 Este 0 -- -- 72
2019-06-23 11:00:00 21.2 3 Sudoeste 6 Sudoeste 0 -- -- 82
2019-06-23 10:00:00 19.4 0 Calma 3 Noroeste 0 -- -- 87
2019-06-23 09:00:00 18 0 Calma 3 Norte 0 -- -- 89
2019-06-23 08:00:00 16.6 3 Nordeste 5 Este 0 -- -- 93
2019-06-23 07:00:00 15 2 Sudeste 4 Sudeste 0 -- -- 95
2019-06-23 06:00:00 14.9 0 Calma 4 Nordeste 0 -- -- 95
2019-06-23 05:00:00 14.9 2 Sudeste 5 Nordeste 0 -- -- 94
2019-06-23 04:00:00 15.5 2 Nordeste 6 Este 0 -- -- 93
2019-06-23 03:00:00 16.1 3 Nordeste 7 Norte 0 -- -- 92
2019-06-23 02:00:00 16.6 2 Nordeste 7 Nordeste 0 -- -- 91
2019-06-23 01:00:00 17.2 4 Nordeste 7 Nordeste 0 -- -- 90
2019-06-23 00:00:00 18.2 4 Este 6 Nordeste 0 -- -- 88
2019-06-22 23:00:00 19.8 3 Sudoeste 10 Sudeste 0 -- -- 85
2019-06-22 22:00:00 20.9 6 Sudeste 22 Este 0 -- -- 80
2019-06-22 21:00:00 22.5 10 Sudeste 26 Sudeste 0 -- -- 73
2019-06-22 20:00:00 24.5 11 Sudeste 33 Sur 0 -- -- 65
2019-06-22 19:00:00 26.2 10 Sudeste 35 Sur 0 -- -- 59
2019-06-22 18:00:00 26.7 17 Sudeste 40 Sudeste 0 -- -- 57
2019-06-22 17:00:00 26.2 20 Sudeste 38 Sudeste 0 -- -- 59
2019-06-22 16:00:00 26 18 Sudeste 42 Sudeste 0 -- -- 62
2019-06-22 15:00:00 26.2 22 Sudeste 42 Sudeste 0 -- -- 60
2019-06-22 14:00:00 25.6 20 Sudeste 40 Sudeste 0 -- -- 61
2019-06-22 13:00:00 25.1 21 Sudeste 45 Sudeste 0 -- -- 64
2019-06-22 12:00:00 25.6 21 Sudeste 35 Sudeste 0 -- -- 59
2019-06-22 11:00:00 26.2 6 Sudeste 19 Sudeste 0 -- -- 56
2019-06-22 10:00:00 24.6 3 Oeste 6 Oeste 0 -- -- 52
2019-06-22 09:00:00 21.6 0 Calma 3 Norte 0 -- -- 54
2019-06-22 08:00:00 15.9 3 Nordeste 6 Este 0 -- -- 72
2019-06-22 07:00:00 12.4 3 Este 8 Nordeste 0 -- -- 83
2019-06-22 06:00:00 12.8 4 Este 6 Nordeste 0 -- -- 82
2019-06-22 05:00:00 13.5 4 Este 8 Este 0 -- -- 80
2019-06-22 04:00:00 14.4 4 Este 6 Este 0 -- -- 77
2019-06-22 03:00:00 15.5 6 Este 10 Nordeste 0 -- -- 74
2019-06-22 02:00:00 16.5 5 Este 9 Este 0 -- -- 75
2019-06-22 01:00:00 17.7 4 Sudeste 9 Este 0 -- -- 71
2019-06-22 00:00:00 19.1 4 Este 8 Este 0 -- -- 66
2019-06-21 23:00:00 22 5 Noroeste 12 Oeste 0 -- -- 57
2019-06-21 22:00:00 24.7 3 Noroeste 20 Oeste 0 -- -- 50
2019-06-21 21:00:00 27.5 11 Oeste 27 Oeste 0 -- -- 44
2019-06-21 20:00:00 29.2 15 Oeste 30 Oeste 0 -- -- 39
2019-06-21 19:00:00 29.8 20 Oeste 36 Oeste 0 -- -- 36
2019-06-21 18:00:00 30 19 Oeste 46 Oeste 0 -- -- 36
2019-06-21 17:00:00 30.2 22 Oeste 43 Oeste 0 -- -- 35
2019-06-21 16:00:00 30.5 23 Oeste 39 Oeste 0 -- -- 33
2019-06-21 15:00:00 30 24 Oeste 42 Oeste 0 -- -- 35
2019-06-21 14:00:00 29.6 19 Oeste 36 Sudoeste 0 -- -- 35
2019-06-21 13:00:00 27.9 20 Oeste 37 Oeste 0 -- -- 39
2019-06-21 12:00:00 27 18 Oeste 33 Oeste 0 -- -- 43
2019-06-21 11:00:00 27.2 8 Noroeste 22 Oeste 0 -- -- 43
2019-06-21 10:00:00 25.3 13 Noroeste 26 Noroeste 0 -- -- 46
2019-06-21 09:00:00 22.7 5 Noroeste 9 Noroeste 0 -- -- 59
2019-06-21 08:00:00 18.8 2 Noroeste 5 Norte 0 -- -- 70
2019-06-21 07:00:00 14.7 0 Calma 4 Nordeste 0 -- -- 83
2019-06-21 06:00:00 16 3 Norte 7 Este 0 -- -- 78
2019-06-21 05:00:00 16.9 3 Este 16 Noroeste 0 -- -- 76
2019-06-21 04:00:00 18.5 5 Noroeste 27 Oeste 0 -- -- 72
2019-06-21 03:00:00 18.7 13 Oeste 26 Oeste 0 -- -- 72
2019-06-21 02:00:00 19.1 12 Oeste 23 Oeste 0 -- -- 69
2019-06-21 01:00:00 19.9 7 Oeste 27 Noroeste 0 -- -- 61
2019-06-21 00:00:00 20.5 10 Noroeste 28 Noroeste 0 -- -- 60
2019-06-20 23:00:00 20.7 10 Noroeste 26 Oeste 0 -- -- 62
2019-06-20 22:00:00 21.4 15 Oeste 26 Oeste 0 -- -- 60
2019-06-20 21:00:00 23.8 15 Oeste 36 Oeste 0 -- -- 54
2019-06-20 20:00:00 25.4 17 Oeste 35 Oeste 0 -- -- 47
2019-06-20 19:00:00 26.3 23 Oeste 40 Noroeste 0 -- -- 45
2019-06-20 18:00:00 26.9 21 Oeste 40 Oeste 0 -- -- 44
2019-06-20 17:00:00 27.3 21 Oeste 39 Oeste 0 -- -- 44
2019-06-20 16:00:00 27.6 22 Oeste 38 Oeste 0 -- -- 42
2019-06-20 15:00:00 27.7 24 Oeste 39 Oeste 0 -- -- 42
2019-06-20 14:00:00 27.7 19 Oeste 35 Oeste 0 -- -- 44
2019-06-20 13:00:00 26.9 17 Noroeste 36 Noroeste 0 -- -- 48
2019-06-20 12:00:00 25.6 18 Noroeste 31 Norte 0 -- -- 49
2019-06-20 11:00:00 24.4 17 Noroeste 33 Noroeste 0 -- -- 54
2019-06-20 10:00:00 23.9 15 Noroeste 28 Noroeste 0 -- -- 54
2019-06-20 09:00:00 23 13 Oeste 23 Oeste 0 -- -- 59
2019-06-20 08:00:00 19.3 5 Noroeste 11 Oeste 0 -- -- 74
2019-06-20 07:00:00 16.2 5 Oeste 12 Sudoeste 0 -- -- 84
2019-06-20 06:00:00 17.4 5 Oeste 13 Oeste 0 -- -- 83
2019-06-20 05:00:00 17.9 3 Noroeste 17 Noroeste 0 -- -- 78
2019-06-20 04:00:00 19.4 9 Noroeste 26 Noroeste 0 -- -- 72
2019-06-20 03:00:00 18.8 5 Noroeste 16 Noroeste 0 -- -- 72
2019-06-20 02:00:00 18.8 4 Norte 13 Norte 0 -- -- 72
2019-06-20 01:00:00 19.7 8 Noroeste 24 Oeste 0 -- -- 69
2019-06-20 00:00:00 20.1 11 Noroeste 26 Oeste 0 -- -- 73
2019-06-19 23:00:00 21.1 13 Oeste 32 Oeste 0 -- -- 70
2019-06-19 22:00:00 22.6 19 Oeste 36 Oeste 0 -- -- 62
2019-06-19 21:00:00 25.4 16 Oeste 38 Oeste 0 -- -- 55
2019-06-19 20:00:00 27.2 17 Oeste 40 Oeste 0 -- -- 51
2019-06-19 19:00:00 29 23 Oeste 37 Oeste 0 -- -- 47
2019-06-19 18:00:00 30.6 19 Oeste 42 Noroeste 0 -- -- 39
2019-06-19 17:00:00 30.6 22 Oeste 37 Oeste 0 -- -- 39
2019-06-19 16:00:00 30 24 Oeste 39 Oeste 0 -- -- 40
2019-06-19 15:00:00 29.5 22 Oeste -- -- -- -- -- 43
2019-06-19 14:00:00 -- -- -- -- -- -- -- -- --
2019-06-19 13:00:00 27.2 20 Noroeste 37 Noroeste 0 -- -- 47
2019-06-19 12:00:00 26 19 Oeste 33 Oeste 0 -- -- 52
2019-06-19 11:00:00 25.3 17 Oeste 28 Oeste 0 -- -- 54
2019-06-19 10:00:00 25.1 11 Oeste 24 Noroeste 0 -- -- 54
2019-06-19 09:00:00 23.3 8 Norte 25 Norte 0 -- -- 59
2019-06-19 08:00:00 20 11 Noroeste 22 Oeste 0 -- -- 72
2019-06-19 07:00:00 17.6 5 Noroeste 13 Noroeste 0 -- -- 80
2019-06-19 06:00:00 17.2 8 Noroeste 15 Noroeste 0 -- -- 83
2019-06-19 05:00:00 16.7 0 Calma 8 Oeste 0 -- -- 86
2019-06-19 04:00:00 18.2 5 Noroeste 30 Oeste 0 -- -- 81
2019-06-19 03:00:00 18.7 17 Oeste 31 Oeste 0 -- -- 80
2019-06-19 02:00:00 19 15 Oeste 31 Oeste 0 -- -- 78
2019-06-19 01:00:00 19.4 18 Oeste 32 Oeste 0 -- -- 76
2019-06-19 00:00:00 20.3 13 Noroeste 27 Oeste 0 -- -- 71
2019-06-18 23:00:00 21.3 12 Noroeste 29 Noroeste 0 -- -- 69
2019-06-18 22:00:00 22.8 14 Noroeste 29 Oeste 0 -- -- 63
2019-06-18 21:00:00 25.5 11 Noroeste 31 Oeste 0 -- -- 53
2019-06-18 20:00:00 27 18 Oeste 34 Oeste 0 -- -- 48
2019-06-18 19:00:00 28.3 21 Oeste 37 Oeste 0 -- -- 41
2019-06-18 18:00:00 29.3 19 Oeste 32 Oeste 0 -- -- 35
2019-06-18 17:00:00 30.1 18 Oeste 32 Oeste 0 -- -- 37
2019-06-18 16:00:00 29.4 21 Oeste 37 Oeste 0 -- -- 37
2019-06-18 15:00:00 29 20 Oeste 31 Oeste 0 -- -- 38
2019-06-18 14:00:00 28.6 13 Oeste 22 Oeste 0 -- -- 40
2019-06-18 13:00:00 27.4 11 Oeste 22 Sudoeste 0 -- -- 43
2019-06-18 12:00:00 24.9 15 Oeste 23 Oeste 0 -- -- 50
2019-06-18 11:00:00 23.1 15 Oeste 23 Oeste 0 -- -- 57
2019-06-18 10:00:00 21.7 15 Oeste 26 Noroeste 0 -- -- 61
2019-06-18 09:00:00 19.6 0 Calma 3 Este 0 -- -- 63
2019-06-18 08:00:00 13.6 2 Nordeste 6 Nordeste 0 -- -- 82
2019-06-18 07:00:00 9.8 3 Este 6 Nordeste 0 -- -- 92
2019-06-18 06:00:00 10.2 0 Calma 6 Nordeste 0 -- -- 90
2019-06-18 05:00:00 10.9 4 Nordeste 5 Nordeste 0 -- -- 89
2019-06-18 04:00:00 11.8 2 Norte 6 Nordeste 0 -- -- 87
2019-06-18 03:00:00 12.2 3 Nordeste 6 Nordeste 0 -- -- 85
2019-06-18 02:00:00 13 3 Nordeste 8 Nordeste 0 -- -- 82
2019-06-18 01:00:00 13.9 4 Nordeste 8 Nordeste 0 -- -- 78
2019-06-18 00:00:00 15.3 5 Nordeste 8 Nordeste 0 -- -- 73
2019-06-17 23:00:00 17.2 5 Este 8 Nordeste 0 -- -- 67
2019-06-17 22:00:00 20.8 3 Este 10 Sur 0 -- -- 58
2019-06-17 21:00:00 23.9 7 Sudeste 18 Sur 0 -- -- 51
2019-06-17 20:00:00 25.6 6 Sur 18 Sudeste 0 -- -- 49
2019-06-17 19:00:00 26.1 10 Sudeste 22 Sur 0 -- -- 45
2019-06-17 18:00:00 26.8 12 Sudeste 25 Sudeste 0 -- -- 48
2019-06-17 17:00:00 27.5 14 Sudeste 30 Sudeste 0 -- -- 40
2019-06-17 16:00:00 27.8 13 Sudeste 30 Sudeste 0 -- -- 40
2019-06-17 15:00:00 27.6 15 Sudeste 29 Sudeste 0 -- -- 41
2019-06-17 14:00:00 27.5 13 Sudeste 25 Sudeste 0 -- -- 38
2019-06-17 13:00:00 26.4 12 Sudeste 26 Sudeste 0 -- -- 45
2019-06-17 12:00:00 25.2 9 Sur 18 Sudeste 0 -- -- 56
2019-06-17 11:00:00 23.3 6 Sudoeste 11 Sudoeste 0 -- -- 60
2019-06-17 10:00:00 21.4 0 Calma 4 Noroeste 0 -- -- 54
2019-06-17 09:00:00 18.5 0 Calma 2 Oeste 0 -- -- 60
2019-06-17 08:00:00 12.2 3 Este 6 Nordeste 0 -- -- 80
2019-06-17 07:00:00 8.6 4 Este 5 Este 0 -- -- 92
2019-06-17 06:00:00 8.9 2 Nordeste 6 Nordeste 0 -- -- 90
2019-06-17 05:00:00 9.5 0 Calma 7 Nordeste 0 -- -- 89
2019-06-17 04:00:00 10 4 Este 5 Nordeste 0 -- -- 87
2019-06-17 03:00:00 11.1 4 Nordeste 6 Nordeste 0 -- -- 84
2019-06-17 02:00:00 11.8 3 Nordeste 7 Norte 0 -- -- 82
2019-06-17 01:00:00 13 4 Nordeste 8 Norte 0 -- -- 77
2019-06-17 00:00:00 14.4 5 Nordeste 9 Nordeste 0 -- -- 72
2019-06-16 23:00:00 16.4 6 Nordeste 15 Sur 0 -- -- 70
2019-06-16 22:00:00 19.3 8 Sudoeste 22 Sudoeste 0 -- -- 62
2019-06-16 21:00:00 21.9 11 Sur 21 Sur 0 -- -- 45
2019-06-16 20:00:00 23.9 10 Sudeste 31 Sudeste 0 -- -- 39
2019-06-16 19:00:00 25.3 15 Sudeste 35 Sudeste 0 -- -- 35
2019-06-16 18:00:00 26 17 Sudeste 41 Sudeste 0 -- -- 35
2019-06-16 17:00:00 26.3 21 Sudeste 42 Sudeste 0 -- -- 35
2019-06-16 16:00:00 27 23 Sudeste 37 Sudeste 0 -- -- 35
2019-06-16 15:00:00 27.1 16 Sudeste 37 Este 0 -- -- 38
2019-06-16 14:00:00 26.9 13 Sudeste 26 Este 0 -- -- 42
2019-06-16 13:00:00 25.7 11 Sudeste 23 Sudeste 0 -- -- 43
2019-06-16 12:00:00 23.1 8 Sur 21 Sudeste 0 -- -- 57
2019-06-16 11:00:00 21.7 5 Norte 12 Sudoeste 0 -- -- 61
2019-06-16 10:00:00 22.2 3 Sur 6 Sudeste 0 -- -- 54
2019-06-16 09:00:00 17.5 0 Calma 8 Oeste 0 -- -- 63
2019-06-16 08:00:00 12.5 3 Este 8 Nordeste 0 -- -- 80
2019-06-16 07:00:00 11.6 0 Calma 6 Este 0 -- -- 82
2019-06-16 06:00:00 11.5 0 Calma 5 Nordeste 0 -- -- 80
2019-06-16 05:00:00 11.4 5 Nordeste 8 Nordeste 0 -- -- 78
2019-06-16 04:00:00 12.3 2 Este 6 Este 0 -- -- 75
2019-06-16 03:00:00 13.4 3 Nordeste 9 Nordeste 0 -- -- 73
2019-06-16 02:00:00 14.7 4 Nordeste 9 Nordeste 0 -- -- 69
2019-06-16 01:00:00 16 7 Nordeste 9 Nordeste 0 -- -- 67
2019-06-16 00:00:00 18.1 5 Sudeste 6 Sudeste 0 -- -- 60
2019-06-15 23:00:00 21.7 5 Oeste 21 Oeste 0 -- -- 49
2019-06-15 22:00:00 24.1 14 Oeste 31 Oeste 0 -- -- 43
2019-06-15 21:00:00 27.7 10 Noroeste 22 Oeste 0 -- -- 33
2019-06-15 20:00:00 30.1 14 Noroeste 27 Noroeste 0 -- -- 29
2019-06-15 19:00:00 31.3 14 Noroeste 32 Oeste 0 -- -- 28
2019-06-15 18:00:00 31.5 18 Oeste 32 Oeste 0 -- -- 27
2019-06-15 17:00:00 31.5 19 Oeste 35 Oeste 0 -- -- 28
2019-06-15 16:00:00 31.1 18 Oeste 34 Oeste 0 -- -- 28
2019-06-15 15:00:00 30.2 19 Oeste 32 Oeste 0 -- -- 30
2019-06-15 14:00:00 29.3 14 Noroeste 27 Noroeste 0 -- -- 29
2019-06-15 13:00:00 28.5 6 Noroeste 23 Oeste 0 -- -- 29
2019-06-15 12:00:00 26.2 11 Norte 21 Noroeste 0 -- -- 35
2019-06-15 11:00:00 24.9 9 Noroeste 24 Norte 0 -- -- 38
2019-06-15 10:00:00 22.7 10 Norte 22 Noroeste 0 -- -- 45
2019-06-15 09:00:00 20.9 0 Calma 8 Sur 0 -- -- 53
2019-06-15 08:00:00 13.5 4 Sudeste 8 Este 0 -- -- 75
2019-06-15 07:00:00 9.6 4 Este 9 Este 0 -- -- 87
2019-06-15 06:00:00 9.9 0 Calma 4 Este 0 -- -- 88
2019-06-15 05:00:00 10.5 3 Nordeste 7 Nordeste 0 -- -- 86
2019-06-15 04:00:00 11.5 2 Sudeste 7 Sudoeste 0 -- -- 82
2019-06-15 03:00:00 13.6 3 Sudoeste 9 Noroeste 0 -- -- 75
2019-06-15 02:00:00 15.8 4 Norte 22 Noroeste 0 -- -- 66
2019-06-15 01:00:00 16.9 11 Norte 34 Norte 0 -- -- 60
2019-06-15 00:00:00 17 15 Noroeste 28 Noroeste 0 -- -- 60
2019-06-14 23:00:00 17.7 13 Noroeste 23 Noroeste 0 -- -- 59
2019-06-14 22:00:00 18.6 14 Noroeste 30 Noroeste 0 -- -- 54
2019-06-14 21:00:00 20.5 16 Noroeste 32 Oeste 0 -- -- 49
2019-06-14 20:00:00 22.2 17 Oeste 35 Oeste 0 -- -- 45
2019-06-14 19:00:00 22.7 18 Oeste 34 Oeste 0 -- -- 44
2019-06-14 18:00:00 23.7 16 Oeste 37 Oeste 0 -- -- 41
2019-06-14 17:00:00 23.1 27 Oeste 41 Oeste 0 -- -- 39
2019-06-14 16:00:00 23.6 22 Noroeste 39 Noroeste 0 -- -- 38
2019-06-14 15:00:00 22.7 24 Oeste 40 Oeste 0 -- -- 40
2019-06-14 14:00:00 22.7 20 Oeste 38 Sudoeste 0 -- -- 44
2019-06-14 13:00:00 20.2 20 Oeste 37 Oeste 0 -- -- 58
2019-06-14 12:00:00 20.7 20 Oeste 31 Oeste 0 -- -- 52
2019-06-14 11:00:00 20.9 17 Oeste 29 Oeste 0 -- -- 57
2019-06-14 10:00:00 18.7 15 Oeste 29 Oeste 0 -- -- 65
2019-06-14 09:00:00 19 8 Oeste 18 Sudoeste 0 -- -- 65
2019-06-14 08:00:00 17.2 10 Oeste 22 Oeste 0 -- -- 67
2019-06-14 07:00:00 16.7 6 Oeste 21 Oeste 0 -- -- 71
2019-06-14 06:00:00 16.7 4 Oeste 22 Sudoeste 0 -- -- 73
2019-06-14 05:00:00 17.2 12 Oeste 23 Oeste 0 -- -- 73
2019-06-14 04:00:00 18.1 11 Sudoeste 19 Sudoeste 0 -- -- 73
2019-06-14 03:00:00 18.5 8 Oeste 12 Oeste 0 -- -- 68
2019-06-14 02:00:00 18.8 3 Oeste 16 Oeste 0 -- -- 67
2019-06-14 01:00:00 18.9 4 Noroeste 10 Sudoeste 0 -- -- 69
2019-06-14 00:00:00 19.7 5 Sudoeste 14 Sudoeste 0 -- -- 65
2019-06-13 23:00:00 20.5 3 Sudoeste 15 Sudeste 0 -- -- 69
2019-06-13 22:00:00 20.9 9 Sudeste 15 Sudeste 0 -- -- 75
2019-06-13 21:00:00 22 7 Este 12 Sudeste 0 -- -- 68
2019-06-13 20:00:00 23.2 7 Sudeste 22 Sudeste 0 -- -- 63
2019-06-13 19:00:00 24.9 8 Sur 26 Sudeste 0 -- -- 59
2019-06-13 18:00:00 24.3 14 Sudeste 30 Sudeste 0 -- -- 60
2019-06-13 17:00:00 25.2 14 Sudeste 35 Sudeste 0 -- -- 57
2019-06-13 16:00:00 25.1 17 Sudeste 31 Sudeste 0 -- -- 57
2019-06-13 15:00:00 24.3 14 Sudeste 30 Este 0 -- -- 59
2019-06-13 14:00:00 24 17 Sudeste 44 Sur 0 -- -- 60
2019-06-13 13:00:00 24.2 15 Sudeste 38 Este 0 -- -- 61
2019-06-13 12:00:00 22.7 17 Sudeste 36 Este 0 -- -- 66
2019-06-13 11:00:00 22.2 15 Sudeste 37 Sudeste 0 -- -- 70
2019-06-13 10:00:00 20.4 15 Este 27 Este 0 -- -- 77
2019-06-13 09:00:00 15.4 3 Oeste 6 Noroeste 0 -- -- 90
2019-06-13 08:00:00 13.9 2 Nordeste 4 Nordeste 0 -- -- 94
2019-06-13 07:00:00 13 0 Calma 5 Noroeste 0 -- -- 95
2019-06-13 06:00:00 12.9 0 Calma 5 Nordeste 0 -- -- 94
2019-06-13 05:00:00 13.3 3 Nordeste 8 Nordeste 0 -- -- 94
2019-06-13 04:00:00 13.8 2 Nordeste 6 Nordeste 0 -- -- 94
2019-06-13 03:00:00 14.2 2 Nordeste 8 Nordeste 0 -- -- 92
2019-06-13 02:00:00 15.2 4 Nordeste 9 Nordeste 0 -- -- 89
2019-06-13 01:00:00 17.4 0 Calma 17 Este 0 -- -- 85
2019-06-13 00:00:00 18.2 8 Sudeste 22 Sudeste 0 -- -- 83
2019-06-12 23:00:00 18.3 8 Sudeste 19 Sudeste 0 -- -- 84
2019-06-12 22:00:00 18.7 10 Sudeste 25 Sudeste 0 -- -- 81
2019-06-12 21:00:00 19.9 9 Sudeste 28 Sudeste 0 -- -- 75
2019-06-12 20:00:00 21.4 16 Sudeste 38 Sur 0 -- -- 69
2019-06-12 19:00:00 22.3 18 Sudeste 39 Este 0 -- -- 66
2019-06-12 18:00:00 23.1 21 Sudeste 38 Sudeste 0 -- -- 63
2019-06-12 17:00:00 23.3 24 Sudeste 46 Sudeste 0 -- -- 63
2019-06-12 16:00:00 23.7 23 Sudeste 50 Este 0 -- -- 62
2019-06-12 15:00:00 23.6 27 Sudeste 50 Este 0 -- -- 59
2019-06-12 14:00:00 24.1 25 Sudeste 50 Este 0 -- -- 57
2019-06-12 13:00:00 23.1 28 Este 57 Este 0 -- -- 60
2019-06-12 12:00:00 22.8 27 Este 49 Este 0 -- -- 63
2019-06-12 11:00:00 22.8 22 Este 51 Este 0 -- -- 63
2019-06-12 10:00:00 22.3 23 Este 40 Este 0 -- -- 64
2019-06-12 09:00:00 20.3 25 Este 41 Este 0 -- -- 72
2019-06-12 08:00:00 20.1 14 Este 38 Nordeste 0 -- -- 74
2019-06-12 07:00:00 15.5 4 Nordeste 9 Nordeste 0 -- -- 83
2019-06-12 06:00:00 16.6 6 Nordeste 14 Este 0 -- -- 83
2019-06-12 05:00:00 17.4 5 Nordeste 36 Sudeste 0 -- -- 81
2019-06-12 04:00:00 14.5 13 Este 39 Este 0 -- -- 83
2019-06-12 03:00:00 14.2 3 Este 10 Este 0 -- -- 82
2019-06-12 02:00:00 14.2 5 Nordeste 8 Nordeste 0 -- -- 84
2019-06-12 01:00:00 16.1 3 Norte 8 Oeste 0 -- -- 77
2019-06-12 00:00:00 18.7 4 Oeste 21 Oeste 0 -- -- 70
2019-06-11 23:00:00 19.6 12 Oeste 32 Oeste 0 -- -- 70
2019-06-11 22:00:00 20.2 16 Oeste 38 Oeste 0 -- -- 69
2019-06-11 21:00:00 22.1 17 Noroeste 40 Oeste 0 -- -- 61
2019-06-11 20:00:00 24.1 24 Oeste 40 Oeste 0 -- -- 53
2019-06-11 19:00:00 25.3 24 Oeste 43 Oeste 0 -- -- 50
2019-06-11 18:00:00 26.1 26 Oeste 46 Oeste 0 -- -- 46
2019-06-11 17:00:00 26.7 25 Oeste 43 Oeste 0 -- -- 43
2019-06-11 16:00:00 26.6 22 Oeste 38 Oeste 0 -- -- 44
2019-06-11 15:00:00 26.1 26 Oeste 41 Oeste 0 -- -- 45
2019-06-11 14:00:00 25.4 26 Oeste 41 Oeste 0 -- -- 46
2019-06-11 13:00:00 24.7 19 Oeste 36 Oeste 0 -- -- 46
2019-06-11 12:00:00 23.6 18 Oeste 36 Oeste 0 -- -- 47
2019-06-11 11:00:00 21.4 21 Oeste 36 Oeste 0 -- -- 47
2019-06-11 10:00:00 21.2 15 Oeste 36 Oeste 0 -- -- 51
2019-06-11 09:00:00 20.5 16 Oeste 27 Oeste 0 -- -- 63
2019-06-11 08:00:00 17.4 3 Norte 10 Sudoeste 0 -- -- 74
2019-06-11 07:00:00 11.8 3 Nordeste 9 Noroeste 0 -- -- 85
2019-06-11 06:00:00 11.7 4 Nordeste 11 Nordeste 0 -- -- 83
2019-06-11 05:00:00 11.9 6 Nordeste 11 Este 0 -- -- 81
2019-06-11 04:00:00 12.5 7 Este 11 Nordeste 0 -- -- 79
2019-06-11 03:00:00 13.8 3 Sudeste 6 Sur 0 -- -- 75
2019-06-11 02:00:00 15.4 4 Sudeste 11 Oeste 0 -- -- 72
2019-06-11 01:00:00 17.7 8 Oeste 31 Noroeste 0 -- -- 66
2019-06-11 00:00:00 18.2 14 Oeste 28 Oeste 0 -- -- 65
2019-06-10 23:00:00 18.8 13 Oeste 31 Noroeste 0 -- -- 63
2019-06-10 22:00:00 19.7 15 Noroeste 28 Noroeste 0 -- -- 60
2019-06-10 21:00:00 22.4 12 Oeste 33 Oeste 0 -- -- 50
2019-06-10 20:00:00 23.8 19 Oeste 41 Oeste 0 -- -- 48
2019-06-10 19:00:00 24.7 22 Oeste 47 Sudoeste 0 -- -- 46
2019-06-10 18:00:00 26.2 27 Oeste 47 Oeste 0 -- -- 42
2019-06-10 17:00:00 27.2 26 Oeste 44 Oeste 0 -- -- 38
2019-06-10 16:00:00 27.7 18 Noroeste 36 Noroeste 0 -- -- 32
2019-06-10 15:00:00 27.3 17 Noroeste 37 Noroeste 0 -- -- 37
2019-06-10 14:00:00 26.3 18 Noroeste 34 Noroeste 0 -- -- 36
2019-06-10 13:00:00 25.5 19 Noroeste 35 Noroeste 0 -- -- 38
2019-06-10 12:00:00 24.8 17 Noroeste 39 Oeste 0 -- -- 43
2019-06-10 11:00:00 23.2 21 Oeste 32 Oeste 0 -- -- 50
2019-06-10 10:00:00 21.7 15 Oeste 32 Oeste 0 -- -- 59
2019-06-10 09:00:00 20.1 14 Oeste 25 Oeste 0 -- -- 64
2019-06-10 08:00:00 16.9 4 Sudoeste 10 Sudoeste 0 -- -- 74
2019-06-10 07:00:00 13.9 3 Noroeste 10 Noroeste 0 -- -- 83
2019-06-10 06:00:00 13.6 2 Nordeste 7 Oeste 0 -- -- 84
2019-06-10 05:00:00 14.1 2 Sudeste 12 Noroeste 0 -- -- 80
2019-06-10 04:00:00 14.5 6 Este 12 Este 0 -- -- 77
2019-06-10 03:00:00 17.1 4 Noroeste 15 Oeste 0 -- -- 70
2019-06-10 02:00:00 17.8 5 Noroeste 15 Oeste 0 -- -- 67
2019-06-10 01:00:00 18.5 7 Oeste 17 Sudoeste 0 -- -- 56
2019-06-10 00:00:00 18.3 4 Sur 38 Noroeste 0 -- -- 51
2019-06-09 23:00:00 19.3 22 Oeste 41 Oeste 0 -- -- 50
2019-06-09 22:00:00 20.5 15 Noroeste 31 Oeste 0 -- -- 43
2019-06-09 21:00:00 23.1 20 Oeste 36 Oeste 0 -- -- 34
2019-06-09 20:00:00 25.1 18 Oeste 39 Oeste 0 -- -- 34
2019-06-09 19:00:00 26.3 24 Oeste 42 Oeste 0 -- -- 31
2019-06-09 18:00:00 27.3 20 Oeste 37 Oeste 0 -- -- 29
2019-06-09 17:00:00 27.5 18 Oeste 43 Sudoeste 0 -- -- 39
2019-06-09 16:00:00 27 21 Oeste 40 Oeste 0 -- -- 44
2019-06-09 15:00:00 26.2 23 Oeste 40 Oeste 0 -- -- 45
2019-06-09 14:00:00 25.7 22 Oeste 39 Oeste 0 -- -- 49
2019-06-09 13:00:00 26 18 Oeste 33 Oeste 0 -- -- 51
2019-06-09 12:00:00 25 17 Oeste 28 Oeste 0 -- -- 55
2019-06-09 11:00:00 25.5 5 Oeste 12 Norte 0 -- -- 59
2019-06-09 10:00:00 22.5 2 Sudoeste 7 Oeste 0 -- -- 74
2019-06-09 09:00:00 20.9 0 Calma 3 Noroeste 0 -- -- 80
2019-06-09 08:00:00 17.2 0 Calma 5 Este 0 -- -- 91
2019-06-09 07:00:00 16.9 0 Calma 3 Sudeste 0 -- -- 91
2019-06-09 06:00:00 16.8 0 Calma 4 Este 0 -- -- 91
2019-06-09 05:00:00 16.5 2 Nordeste 5 Este 0 -- -- 91
2019-06-09 04:00:00 16.6 0 Calma 4 Noroeste 0 -- -- 91
2019-06-09 03:00:00 16.9 2 Norte 9 Noroeste 0 -- -- 91
2019-06-09 02:00:00 17.4 3 Norte 7 Noroeste 0 -- -- 90
2019-06-09 01:00:00 18.7 5 Sudeste 11 Sudeste 0 -- -- 86
2019-06-09 00:00:00 19 3 Sudeste 11 Sudeste 0 -- -- 84
2019-06-08 23:00:00 18.9 5 Sur 14 Sudeste 0 -- -- 85
2019-06-08 22:00:00 19.9 11 Sudeste 28 Sudeste 0 -- -- 81
2019-06-08 21:00:00 21.1 18 Sudeste 35 Sudeste 0 -- -- 76
2019-06-08 20:00:00 22.9 19 Sudeste 40 Sudeste 0 -- -- 64
2019-06-08 19:00:00 23.5 26 Sudeste 49 Sudeste 0 -- -- 61
2019-06-08 18:00:00 24.4 26 Sudeste 46 Este 0 -- -- 58
2019-06-08 17:00:00 24.2 23 Sudeste 44 Sur 0 -- -- 56
2019-06-08 16:00:00 26 21 Sudeste 44 Sudeste 0 -- -- 47
2019-06-08 15:00:00 25.9 26 Sudeste 53 Sudeste 0 -- -- 45
2019-06-08 14:00:00 25.5 24 Este 50 Sudeste 0 -- -- 47
2019-06-08 13:00:00 25.1 22 Sudeste 40 Sudeste 0 -- -- 48
2019-06-08 12:00:00 27.4 11 Sudeste 22 Sur 0 -- -- 39
2019-06-08 11:00:00 25 3 Noroeste 8 Sudoeste 0 -- -- 43
2019-06-08 10:00:00 22.8 2 Noroeste 4 Noroeste 0 -- -- 45
2019-06-08 09:00:00 19.9 0 Calma 5 Nordeste 0 -- -- 50
2019-06-08 08:00:00 13.3 5 Nordeste 10 Nordeste 0 -- -- 64
2019-06-08 07:00:00 10 2 Sur 8 Este 0 -- -- 74
2019-06-08 06:00:00 10.4 3 Nordeste 10 Nordeste 0 -- -- 69
2019-06-08 05:00:00 11.4 4 Nordeste 12 Nordeste 0 -- -- 65
2019-06-08 04:00:00 11.7 5 Nordeste 12 Nordeste 0 -- -- 64
2019-06-08 03:00:00 12.1 5 Este 10 Este 0 -- -- 64
2019-06-08 02:00:00 13.1 7 Este 10 Nordeste 0 -- -- 60
2019-06-08 01:00:00 14.3 6 Este 9 Este 0 -- -- 57
2019-06-08 00:00:00 15.8 4 Este 11 Oeste 0 -- -- 52
2019-06-07 23:00:00 18.7 3 Oeste 11 Oeste 0 -- -- 39
2019-06-07 22:00:00 21.2 4 Este 20 Oeste 0 -- -- 43
2019-06-07 21:00:00 26.1 8 Noroeste 26 Noroeste 0 -- -- 30
2019-06-07 20:00:00 27.6 14 Noroeste 32 Noroeste 0 -- -- 31
2019-06-07 19:00:00 28.9 14 Oeste 33 Oeste 0 -- -- 30
2019-06-07 18:00:00 28.9 15 Oeste 29 Oeste 0 -- -- 28
2019-06-07 17:00:00 28.4 16 Oeste 32 Oeste 0 -- -- 31
2019-06-07 16:00:00 27.6 13 Noroeste 28 Noroeste 0 -- -- 37
2019-06-07 15:00:00 26.6 17 Noroeste 30 Noroeste 0 -- -- 43
2019-06-07 14:00:00 26.4 13 Noroeste 30 Oeste 0 -- -- 45
2019-06-07 13:00:00 24.6 17 Noroeste 32 Oeste 0 -- -- 51
2019-06-07 12:00:00 24.3 14 Noroeste 27 Noroeste 0 -- -- 52
2019-06-07 11:00:00 22.4 17 Norte 33 Noroeste 0 -- -- 58
2019-06-07 10:00:00 20.6 13 Oeste 24 Oeste 0 -- -- 72
2019-06-07 09:00:00 18.2 12 Oeste 19 Oeste 0 -- -- 84
2019-06-07 08:00:00 17.8 6 Oeste 15 Oeste 0 -- -- 82
2019-06-07 07:00:00 18 9 Oeste 23 Noroeste 0 -- -- 77
2019-06-07 06:00:00 17.7 8 Noroeste 27 Noroeste 0 -- -- 75
2019-06-07 05:00:00 17.4 15 Noroeste 28 Noroeste 0 -- -- 75
2019-06-07 04:00:00 13.8 6 Oeste 10 Oeste 0 -- -- 88
2019-06-07 03:00:00 13.8 2 Este 6 Noroeste 0 -- -- 83
2019-06-07 02:00:00 14.9 2 Nordeste 5 Nordeste 0 -- -- 78
2019-06-07 01:00:00 15.6 2 Noroeste 10 Noroeste 0 -- -- 73
2019-06-07 00:00:00 16.8 5 Noroeste 18 Oeste 0 -- -- 67
2019-06-06 23:00:00 17.7 11 Noroeste 27 Oeste 0 -- -- 63
2019-06-06 22:00:00 18.9 11 Oeste 33 Oeste 0 -- -- 51
2019-06-06 21:00:00 21.3 18 Oeste 34 Oeste 0 -- -- 39
2019-06-06 20:00:00 23.4 19 Oeste 37 Oeste 0 -- -- 28
2019-06-06 19:00:00 24.7 23 Oeste 42 Oeste 0 -- -- 30
2019-06-06 18:00:00 26.4 20 Oeste 38 Oeste 0 -- -- 32
2019-06-06 17:00:00 27.6 21 Oeste 36 Sudoeste 0 -- -- 29
2019-06-06 16:00:00 28.5 18 Oeste 33 Oeste 0 -- -- 26
2019-06-06 15:00:00 28.4 18 Oeste 32 Oeste 0 -- -- 28
2019-06-06 14:00:00 27.6 18 Oeste 32 Oeste 0 -- -- 33
2019-06-06 13:00:00 27.6 8 Oeste 23 Oeste 0 -- -- 31
2019-06-06 12:00:00 26.5 9 Oeste 27 Oeste 0 -- -- 32
2019-06-06 11:00:00 25.4 3 Oeste 9 Sudoeste 0 -- -- 38
2019-06-06 10:00:00 22.7 0 Calma 5 Norte 0 -- -- 45
2019-06-06 09:00:00 18.8 0 Calma 5 Sudeste 0 -- -- 64
2019-06-06 08:00:00 12.4 3 Nordeste 8 Nordeste 0 -- -- 81
2019-06-06 07:00:00 9 6 Este 9 Este 0 -- -- 90
2019-06-06 06:00:00 9.4 4 Nordeste 8 Nordeste 0 -- -- 90
2019-06-06 05:00:00 9.9 6 Nordeste 10 Nordeste 0 -- -- 89
2019-06-06 04:00:00 10.6 5 Nordeste 10 Nordeste 0 -- -- 87
2019-06-06 03:00:00 11.4 6 Este 10 Nordeste 0 -- -- 86
2019-06-06 02:00:00 12.4 6 Este 10 Nordeste 0 -- -- 83
2019-06-06 01:00:00 14.3 2 Este 7 Nordeste 0 -- -- 77
2019-06-06 00:00:00 17.1 4 Sudoeste 16 Sudoeste 0 -- -- 68
2019-06-05 23:00:00 18.1 8 Oeste 18 Oeste 0 -- -- 65
2019-06-05 22:00:00 19.2 13 Oeste 31 Noroeste 0 -- -- 60
2019-06-05 21:00:00 21.2 18 Oeste 38 Oeste 0 -- -- 53
2019-06-05 20:00:00 23.7 21 Oeste 34 Oeste 0 -- -- 46
2019-06-05 19:00:00 25.4 19 Noroeste 38 Oeste 0 -- -- 36
2019-06-05 18:00:00 25.8 13 Noroeste 33 Noroeste 0 -- -- 34
2019-06-05 17:00:00 25.5 20 Noroeste 36 Norte 0 -- -- 32
2019-06-05 16:00:00 24.8 23 Noroeste 43 Noroeste 0 -- -- 32
2019-06-05 15:00:00 24.7 20 Noroeste 42 Noroeste 0 -- -- 34
2019-06-05 14:00:00 23.8 22 Noroeste 44 Noroeste 0 -- -- 36
2019-06-05 13:00:00 22.7 24 Noroeste 43 Noroeste 0 -- -- 38
2019-06-05 12:00:00 22.2 16 Noroeste 42 Noroeste 0 -- -- 40
2019-06-05 11:00:00 21 20 Noroeste 41 Noroeste 0 -- -- 44
2019-06-05 10:00:00 19.7 21 Noroeste 37 Oeste 0 -- -- 48
2019-06-05 09:00:00 18.6 18 Noroeste 35 Oeste 0 -- -- 52
2019-06-05 08:00:00 17.4 15 Noroeste 34 Noroeste 0 -- -- 55
2019-06-05 07:00:00 16.4 13 Noroeste 23 Norte 0 -- -- 58
2019-06-05 06:00:00 16.7 9 Noroeste 23 Noroeste 0 -- -- 64
2019-06-05 05:00:00 18.1 13 Noroeste 28 Noroeste 0 -- -- 64
2019-06-05 04:00:00 19.1 13 Noroeste 29 Noroeste 0 -- -- 67
2019-06-05 03:00:00 19.5 9 Oeste 25 Oeste 0 -- -- 78
2019-06-05 02:00:00 19.6 6 Oeste 17 Oeste 0 -- -- 80
2019-06-05 01:00:00 19.6 11 Oeste 20 Noroeste 0 -- -- 79
2019-06-05 00:00:00 19.6 13 Oeste 29 Oeste 0 -- -- 79
2019-06-04 23:00:00 20.3 13 Oeste 31 Oeste 0 -- -- 71
2019-06-04 22:00:00 21.1 18 Oeste 36 Oeste 0 -- -- 69
2019-06-04 21:00:00 23.8 19 Oeste 35 Oeste 0 -- -- 57
2019-06-04 20:00:00 26.2 15 Oeste 33 Oeste 0 -- -- 47
2019-06-04 19:00:00 27.9 19 Oeste 36 Noroeste 0 -- -- 43
2019-06-04 18:00:00 29.2 22 Oeste 42 Oeste 0 -- -- 41
2019-06-04 17:00:00 30.4 21 Oeste 40 Sudoeste 0 -- -- 38
2019-06-04 16:00:00 30.7 20 Oeste 32 Oeste 0 -- -- 42
2019-06-04 15:00:00 30.4 17 Oeste 33 Sudoeste 0 -- -- 43
2019-06-04 14:00:00 30.5 18 Oeste 30 Sudoeste 0 -- -- 44
2019-06-04 13:00:00 29.8 19 Oeste 33 Oeste 0 -- -- 40
2019-06-04 12:00:00 30.5 11 Sudoeste 25 Sudoeste 0 -- -- 36
2019-06-04 11:00:00 25.9 3 Noroeste 6 Noroeste 0 -- -- 42
2019-06-04 10:00:00 22.4 2 Noroeste 5 Sur 0 -- -- 47
2019-06-04 09:00:00 17.7 2 Oeste 4 Nordeste 0 -- -- 63
2019-06-04 08:00:00 11.3 0 Calma 8 Este 0 -- -- 86
2019-06-04 07:00:00 8.3 2 Este 8 Nordeste 0 -- -- 92
2019-06-04 06:00:00 8.7 2 Nordeste 8 Nordeste 0 -- -- 91
2019-06-04 05:00:00 9 4 Este 9 Nordeste 0 -- -- 91
2019-06-04 04:00:00 9.6 0 Calma 8 Nordeste 0 -- -- 89
2019-06-04 03:00:00 10.4 0 Calma 9 Nordeste 0 -- -- 87
2019-06-04 02:00:00 11 4 Nordeste 8 Nordeste 0 -- -- 85
2019-06-04 01:00:00 12.3 6 Nordeste 8 Nordeste 0 -- -- 81
2019-06-04 00:00:00 13.9 4 Nordeste 9 Nordeste 0 -- -- 76
2019-06-03 23:00:00 15.6 4 Nordeste 8 Nordeste 0 -- -- 71
2019-06-03 22:00:00 19.3 4 Este 8 Sur 0 -- -- 62
2019-06-03 21:00:00 23.1 6 Sur 15 Sur 0 -- -- 45
2019-06-03 20:00:00 24.8 8 Sur 21 Sur 0 -- -- 42
2019-06-03 19:00:00 26.5 12 Sur 25 Sur 0 -- -- 37
2019-06-03 18:00:00 27.6 12 Sudeste 25 Este 0 -- -- 35
2019-06-03 17:00:00 27.9 13 Sur 30 Sudeste 0 -- -- 37
2019-06-03 16:00:00 28.3 14 Sudeste 27 Sudeste 0 -- -- 35
2019-06-03 15:00:00 27.8 12 Sudeste 25 Sudeste 0 -- -- 40
2019-06-03 14:00:00 26.9 12 Sur 27 Sudeste 0 -- -- 43
2019-06-03 13:00:00 26.7 10 Sudeste 24 Sudeste 0 -- -- 46
2019-06-03 12:00:00 25.3 12 Sudeste 19 Este 0 -- -- 47
2019-06-03 11:00:00 23.5 3 Oeste 8 Sudoeste 0 -- -- 56
2019-06-03 10:00:00 20.4 0 Calma 3 Noroeste 0 -- -- 57
2019-06-03 09:00:00 16.3 0 Calma 2 Norte 0 -- -- 65
2019-06-03 08:00:00 11.9 0 Calma 8 Este 0 -- -- 79
2019-06-03 07:00:00 7.7 3 Este 4 Este 0 -- -- 92
2019-06-03 06:00:00 8.2 0 Calma 6 Nordeste 0 -- -- 91
2019-06-03 05:00:00 8.9 4 Este 5 Este 0 -- -- 90
2019-06-03 04:00:00 9.6 3 Este 5 Este 0 -- -- 88
2019-06-03 03:00:00 10.3 4 Este 8 Este 0 -- -- 87
2019-06-03 02:00:00 11.1 3 Nordeste 8 Nordeste 0 -- -- 83
2019-06-03 01:00:00 12.1 5 Este 8 Nordeste 0 -- -- 79
2019-06-03 00:00:00 13.8 5 Nordeste 9 Nordeste 0 -- -- 73
2019-06-02 23:00:00 15.5 6 Nordeste 9 Este 0 -- -- 68
2019-06-02 22:00:00 18.5 4 Sudeste 21 Sudeste 0 -- -- 65
2019-06-02 21:00:00 21.6 13 Sudeste 27 Sur 0 -- -- 50
2019-06-02 20:00:00 23.7 17 Sudeste 35 Sudeste 0 -- -- 37
2019-06-02 19:00:00 24.4 22 Sudeste 45 Sudeste 0 -- -- 36
2019-06-02 18:00:00 25.1 24 Sudeste 44 Sudeste 0 -- -- 36
2019-06-02 17:00:00 25.7 22 Sudeste 42 Sudeste 0 -- -- 36
2019-06-02 16:00:00 25.8 24 Sudeste 50 Sudeste 0 -- -- 38
2019-06-02 15:00:00 25.1 25 Sudeste 45 Sudeste 0 -- -- 42
2019-06-02 14:00:00 25.2 22 Sudeste 44 Sudeste 0 -- -- 41
2019-06-02 13:00:00 25.4 20 Sudeste 45 Este 0 -- -- 41
2019-06-02 12:00:00 24.6 23 Sudeste 41 Sudeste 0 -- -- 40
2019-06-02 11:00:00 24.3 19 Sudeste 34 Sudeste 0 -- -- 42
2019-06-02 10:00:00 24.3 14 Sudeste 28 Este 0 -- -- 37
2019-06-02 09:00:00 18.8 4 Norte 9 Noroeste 0 -- -- 55
2019-06-02 08:00:00 14.4 0 Calma 8 Noroeste 0 -- -- 67
2019-06-02 07:00:00 10.6 3 Norte 11 Noroeste 0 -- -- 80
2019-06-02 06:00:00 10.5 0 Calma 9 Nordeste 0 -- -- 80
2019-06-02 05:00:00 11.2 4 Norte 10 Norte 0 -- -- 77
2019-06-02 04:00:00 11.7 2 Nordeste 6 Este 0 -- -- 76
2019-06-02 03:00:00 12.9 2 Nordeste 7 Noroeste 0 -- -- 72
2019-06-02 02:00:00 14 4 Noroeste 10 Sudoeste 0 -- -- 70
2019-06-02 01:00:00 15.7 2 Este 14 Sur 0 -- -- 65
2019-06-02 00:00:00 18.8 6 Sur 18 Sudeste 0 -- -- 51
2019-06-01 23:00:00 18.7 10 Sur 18 Sudeste 0 -- -- 61
2019-06-01 22:00:00 19.3 10 Sur 26 Sudeste 0 -- -- 63
2019-06-01 21:00:00 20.9 16 Sudeste 68 Sudeste 0 -- -- 56
2019-06-01 20:00:00 22.4 17 Sudeste 40 Sudeste 0 -- -- 50
2019-06-01 19:00:00 23.2 19 Sudeste 44 Sudeste 0 -- -- 49
2019-06-01 18:00:00 24.5 18 Sudeste 43 Sudeste 0 -- -- 43
2019-06-01 17:00:00 24.9 17 Sudeste 45 Este 0 -- -- 43
2019-06-01 16:00:00 24.5 23 Sudeste 42 Sudeste 0 -- -- 45
2019-06-01 15:00:00 24.4 23 Sudeste 52 Sudeste 0 -- -- 44
2019-06-01 14:00:00 24.7 25 Sudeste 53 Sudeste 0 -- -- 42
2019-06-01 13:00:00 24.4 22 Sudeste 53 Sudeste 0 -- -- 43
2019-06-01 12:00:00 24.1 23 Sudeste 45 Sudeste 0 -- -- 43
2019-06-01 11:00:00 23.7 19 Sudeste 40 Sudeste 0 -- -- 43
2019-06-01 10:00:00 23.4 15 Sudeste 40 Sudeste 0 -- -- 47
2019-06-01 09:00:00 22.9 10 Sudeste 27 Este 0 -- -- 41
2019-06-01 08:00:00 20.7 7 Sur 19 Sudeste 0 -- -- 50
2019-06-01 07:00:00 18.9 8 Sudeste 25 Sudeste 0 -- -- 53
2019-06-01 06:00:00 19 11 Sudeste 32 Este 0 -- -- 51
2019-06-01 05:00:00 18.4 13 Sudeste 27 Sudeste 0 -- -- 64
2019-06-01 04:00:00 18.3 10 Sudeste 26 Sudeste 0 -- -- 66
2019-06-01 03:00:00 18.7 12 Sudeste 30 Sudeste 0 -- -- 66
2019-06-01 02:00:00 19 15 Sudeste 32 Este 0 -- -- 67
2019-06-01 01:00:00 19 10 Sudeste 22 Este 0 -- -- 67
2019-06-01 00:00:00 18.8 10 Sudeste 30 Este 0 -- -- 70
2019-05-31 23:00:00 19.1 11 Sudeste 35 Sudeste 0 -- -- 68
2019-05-31 22:00:00 19.4 12 Sudeste 31 Este 0 -- -- 64
2019-05-31 21:00:00 20.5 15 Sudeste 40 Este 0 -- -- 60
2019-05-31 20:00:00 22 19 Sudeste 36 Sur 0 -- -- 53
2019-05-31 19:00:00 23.4 21 Sudeste 42 Sudeste 0 -- -- 46
2019-05-31 18:00:00 24 21 Sudeste 44 Este 0 -- -- 43
2019-05-31 17:00:00 23.7 30 Este 63 Este 0 -- -- 43
2019-05-31 16:00:00 23.5 35 Sudeste 62 Este 0 -- -- 45
2019-05-31 15:00:00 23.9 41 Este 74 Sudeste 0 -- -- 41
2019-05-31 14:00:00 24.3 32 Este 62 Este 0 -- -- 43
2019-05-31 13:00:00 23.5 37 Sudeste 64 Este 0 -- -- 44
2019-05-31 12:00:00 23.3 36 Este 64 Este 0 -- -- 42
2019-05-31 11:00:00 23 29 Sudeste 62 Este 0 -- -- 42
2019-05-31 10:00:00 22.4 20 Sudeste 47 Este 0 -- -- 50
2019-05-31 09:00:00 21.5 17 Sudeste 37 Este 0 -- -- 52
2019-05-31 08:00:00 19.9 14 Sudeste 35 Sudeste 0 -- -- 60
2019-05-31 07:00:00 18.4 12 Sudeste 28 Sudeste 0 -- -- 56
2019-05-31 06:00:00 18.5 14 Sudeste 37 Sudeste 0 -- -- 56
2019-05-31 05:00:00 18.8 15 Sudeste 30 Sudeste 0 -- -- 57
2019-05-31 04:00:00 18.8 11 Sudeste 33 Este 0 -- -- 55
2019-05-31 03:00:00 19 19 Este 44 Sudeste 0 -- -- 56
2019-05-31 02:00:00 19.6 26 Sudeste 50 Sudeste 0 -- -- 52
2019-05-31 01:00:00 20.1 21 Sudeste 44 Sudeste 0 -- -- 39
2019-05-31 00:00:00 19.8 24 Sudeste 41 Sudeste 0 -- -- 46
2019-05-30 23:00:00 19.6 21 Sudeste 39 Sudeste 0 -- -- 52
2019-05-30 22:00:00 19.4 24 Sudeste 41 Sudeste 0 -- -- 60
2019-05-30 21:00:00 20.4 23 Este 49 Este 0 -- -- 52
2019-05-30 20:00:00 21.1 28 Este 49 Este 0 -- -- 55
2019-05-30 19:00:00 21.2 33 Este 59 Este 0 -- -- 61
2019-05-30 18:00:00 22.6 25 Sudeste 54 Sudeste 0 -- -- 55
2019-05-30 17:00:00 22.2 33 Sudeste 62 Este 0 -- -- 59
2019-05-30 16:00:00 22.9 27 Este 61 Sudeste 0 -- -- 52
2019-05-30 15:00:00 22.7 35 Sudeste 65 Sudeste 0 -- -- 53
2019-05-30 14:00:00 23 35 Sudeste 66 Sudeste 0 -- -- 46
2019-05-30 13:00:00 23 30 Este 66 Sudeste 0 -- -- 54
2019-05-30 12:00:00 22.4 31 Sudeste 63 Sudeste 0 -- -- 59
2019-05-30 11:00:00 22 29 Sudeste 57 Sudeste 0 -- -- 60
2019-05-30 10:00:00 21.6 23 Este 44 Sudeste 0 -- -- 63
2019-05-30 09:00:00 21.2 21 Sudeste 50 Este 0 -- -- 61
2019-05-30 08:00:00 20.3 20 Este 49 Este 0 -- -- 58
2019-05-30 07:00:00 19.4 18 Este 41 Este 0 -- -- 51
2019-05-30 06:00:00 19.2 17 Este 41 Este 0 -- -- 53
2019-05-30 05:00:00 19.3 18 Este 39 Este 0 -- -- 50
2019-05-30 04:00:00 19.4 14 Este 32 Sudeste 0 -- -- 52
2019-05-30 03:00:00 19.6 15 Este 36 Este 0 -- -- 54
2019-05-30 02:00:00 19.5 16 Este 34 Nordeste 0 -- -- 58
2019-05-30 01:00:00 19.3 15 Sudeste 35 Sudeste 0 -- -- 61
2019-05-30 00:00:00 19.6 20 Sudeste 37 Sudeste 0 -- -- 59
2019-05-29 23:00:00 19.7 16 Sudeste 33 Este 0 -- -- 58
2019-05-29 22:00:00 19.8 15 Sudeste 40 Sudeste 0 -- -- 61
2019-05-29 21:00:00 20.9 24 Sudeste 44 Sudeste 0 -- -- 56
2019-05-29 20:00:00 22.6 21 Sudeste 45 Sudeste 0 -- -- 46
2019-05-29 19:00:00 23.5 23 Sudeste 45 Sudeste 0 -- -- 45
2019-05-29 18:00:00 24.2 24 Sudeste 46 Este 0 -- -- 46
2019-05-29 17:00:00 24.7 26 Sudeste 52 Sudeste 0 -- -- 42
2019-05-29 16:00:00 25.1 24 Sudeste 49 Sudeste 0 -- -- 44
2019-05-29 15:00:00 24.8 26 Sudeste 51 Sudeste 0 -- -- 43
2019-05-29 14:00:00 25.6 21 Sudeste 48 Este 0 -- -- 41
2019-05-29 13:00:00 25 27 Sudeste 52 Este 0 -- -- 39
2019-05-29 12:00:00 25.1 24 Sudeste 53 Sudeste 0 -- -- 39
2019-05-29 11:00:00 24.3 28 Sudeste 50 Este 0 -- -- 45
2019-05-29 10:00:00 24.2 24 Sudeste 42 Este 0 -- -- 48
2019-05-29 09:00:00 22.4 22 Este 41 Este 0 -- -- 56
2019-05-29 08:00:00 16.1 0 Calma 3 Noroeste 0 -- -- 88
2019-05-29 07:00:00 13.8 4 Nordeste 6 Norte 0 -- -- 95
2019-05-29 06:00:00 13.6 3 Este 5 Norte 0 -- -- 94
2019-05-29 05:00:00 13.8 2 Nordeste 8 Nordeste 0 -- -- 92
2019-05-29 04:00:00 14.3 3 Este 5 Este 0 -- -- 90
2019-05-29 03:00:00 14.9 3 Este 6 Nordeste 0 -- -- 88
2019-05-29 02:00:00 15.5 3 Nordeste 7 Nordeste 0 -- -- 87
2019-05-29 01:00:00 16.1 5 Este 7 Este 0 -- -- 84
2019-05-29 00:00:00 17.9 2 Este 9 Sur 0 -- -- 78
2019-05-28 23:00:00 20.6 6 Sur 9 Sur 0 -- -- 70
2019-05-28 22:00:00 23.4 5 Norte 13 Sudeste 0 -- -- 60
2019-05-28 21:00:00 28.9 3 Sur 15 Oeste 0 -- -- 41
2019-05-28 20:00:00 32 10 Oeste 20 Oeste 0 -- -- 31
2019-05-28 19:00:00 32.8 13 Oeste 26 Sudoeste 0 -- -- 30
2019-05-28 18:00:00 33.2 15 Oeste 32 Oeste 0 -- -- 33
2019-05-28 17:00:00 33.7 16 Oeste 32 Oeste 0 -- -- 35
2019-05-28 16:00:00 33.7 19 Oeste 30 Sudoeste 0 -- -- 39
2019-05-28 15:00:00 33.8 19 Sudoeste 33 Oeste 0 -- -- 34
2019-05-28 14:00:00 33.8 18 Oeste 31 Oeste 0 -- -- 35
2019-05-28 13:00:00 34.5 15 Oeste 24 Oeste 0 -- -- 28
2019-05-28 12:00:00 32.7 4 Sudeste 9 Sur 0 -- -- 39
2019-05-28 11:00:00 29.2 2 Este 5 Noroeste 0 -- -- 42
2019-05-28 10:00:00 26 0 Calma 3 Sudoeste 0 -- -- 47
2019-05-28 09:00:00 20.5 0 Calma 5 Nordeste 0 -- -- 62
2019-05-28 08:00:00 15.8 2 Este 5 Este 0 -- -- 77
2019-05-28 07:00:00 12.7 2 Sudeste 6 Nordeste 0 -- -- 87
2019-05-28 06:00:00 13.4 2 Nordeste 8 Nordeste 0 -- -- 86
2019-05-28 05:00:00 13.9 6 Este 9 Nordeste 0 -- -- 82
2019-05-28 04:00:00 14.6 2 Nordeste 9 Este 0 -- -- 80
2019-05-28 03:00:00 15.2 2 Nordeste 8 Nordeste 0 -- -- 78
2019-05-28 02:00:00 16 2 Nordeste 7 Este 0 -- -- 76
2019-05-28 01:00:00 16.9 3 Nordeste 11 Nordeste 0 -- -- 74
2019-05-28 00:00:00 18.2 4 Este 9 Nordeste 0 -- -- 70
2019-05-27 23:00:00 19.8 5 Nordeste 12 Nordeste 0 -- -- 66
2019-05-27 22:00:00 22.5 5 Nordeste 7 Nordeste 0 -- -- 60
2019-05-27 21:00:00 28.2 0 Calma 10 Sur 0 -- -- 43
2019-05-27 20:00:00 29 9 Sudeste 17 Sudeste 0 -- -- 36
2019-05-27 19:00:00 29.8 10 Este 27 Este 0 -- -- 34
2019-05-27 18:00:00 29.9 14 Este 32 Este 0 -- -- 34
2019-05-27 17:00:00 31.2 17 Sudeste 29 Sudeste 0 -- -- 31
2019-05-27 16:00:00 32 17 Sudeste 27 Sudeste 0 -- -- 32
2019-05-27 15:00:00 31.9 12 Sudeste 24 Este 0 -- -- 33
2019-05-27 14:00:00 31.5 6 Sudeste 15 Sudoeste 0 -- -- 34
2019-05-27 13:00:00 29.1 5 Sur 14 Sudeste 0 -- -- 37
2019-05-27 12:00:00 27.1 5 Sur 12 Sur 0 -- -- 43
2019-05-27 11:00:00 24.9 4 Sudoeste 10 Sudoeste 0 -- -- 46
2019-05-27 10:00:00 21.7 2 Oeste 5 Oeste 0 -- -- 58
2019-05-27 09:00:00 18.2 0 Calma 3 Sudoeste 0 -- -- 67
2019-05-27 08:00:00 13.1 0 Calma 5 Nordeste 0 -- -- 86
2019-05-27 07:00:00 10.1 0 Calma 6 Este 0 -- -- 93
2019-05-27 06:00:00 10.3 3 Norte 5 Nordeste 0 -- -- 93
2019-05-27 05:00:00 10.9 3 Este 6 Nordeste 0 -- -- 91
2019-05-27 04:00:00 11.6 3 Nordeste 6 Nordeste 0 -- -- 89
2019-05-27 03:00:00 12.2 2 Norte 7 Nordeste 0 -- -- 87
2019-05-27 02:00:00 12.9 3 Este 6 Nordeste 0 -- -- 85
2019-05-27 01:00:00 14 4 Este 8 Nordeste 0 -- -- 81
2019-05-27 00:00:00 15.1 5 Nordeste 8 Nordeste 0 -- -- 78
2019-05-26 23:00:00 16.8 4 Nordeste 9 Nordeste 0 -- -- 72
2019-05-26 22:00:00 19.7 5 Este 12 Sudeste 0 -- -- 61
2019-05-26 21:00:00 22.6 7 Sudeste 17 Este 0 -- -- 51
2019-05-26 20:00:00 24.7 10 Sudeste 17 Sudeste 0 -- -- 43
2019-05-26 19:00:00 25.6 11 Sudeste 27 Sudeste 0 -- -- 42
2019-05-26 18:00:00 26.2 14 Sudeste 23 Sudeste 0 -- -- 39
2019-05-26 17:00:00 26.4 13 Sudeste 30 Sur 0 -- -- 40
2019-05-26 16:00:00 26.6 14 Sudeste 31 Sudeste 0 -- -- 37
2019-05-26 15:00:00 26.4 14 Sudeste 30 Sudeste 0 -- -- 40
2019-05-26 14:00:00 26.4 13 Sudeste 30 Sudeste 0 -- -- 39
2019-05-26 13:00:00 25.6 15 Sudeste 33 Este 0 -- -- 40
2019-05-26 12:00:00 25.2 15 Sudeste 33 Este 0 -- -- 39
2019-05-26 11:00:00 24.6 3 Sur 8 Oeste 0 -- -- 49
2019-05-26 10:00:00 21.8 2 Noroeste 6 Noroeste 0 -- -- 61
2019-05-26 09:00:00 19 0 Calma 4 Noroeste 0 -- -- 71
2019-05-26 08:00:00 13.5 3 Norte 9 Nordeste 0 -- -- 93
2019-05-26 07:00:00 11 3 Nordeste 8 Nordeste 0 -- -- 97
2019-05-26 06:00:00 11.7 2 Norte 6 Norte 0 -- -- 97
2019-05-26 05:00:00 12 2 Nordeste 8 Norte 0 -- -- 96
2019-05-26 04:00:00 12.8 2 Norte 7 Norte 0 -- -- 95
2019-05-26 03:00:00 13.3 4 Sudeste 9 Este 0 -- -- 95
2019-05-26 02:00:00 14 2 Este 6 Este 0 -- -- 94
2019-05-26 01:00:00 14.6 3 Oeste 8 Nordeste 0 -- -- 92
2019-05-26 00:00:00 15.3 6 Nordeste 9 Nordeste 0 -- -- 90